Time;durP1;ratioP1;P1;durP2;ratioP2;P2;SDS_P1;SDS_P2;PMS_P1;PMS_P2;Temp;Humidity;BMP_temperature;BMP_pressure;BME280_temperature;BME280_humidity;BME280_pressure;Samples;Min_cycle;Max_cycle;Signal;HPM_P1;HPM_P2
2021/01/28 00:02:24;;;;;;;16.40;12.13;;;;;;;;;;5033744;28;20615;-73
2021/01/28 00:05:31;;;;;;;16.57;12.80;;;;;;;;;;5033984;28;20536;-73
2021/01/28 00:08:35;;;;;;;18.57;13.30;;;;;;;;;;5041883;28;20911;-73
2021/01/28 00:11:39;;;;;;;16.77;12.90;;;;;;;;;;5053569;28;20965;-72
2021/01/28 00:14:43;;;;;;;15.33;12.43;;;;;;;;;;5033543;28;21145;-73
2021/01/28 00:17:47;;;;;;;15.70;12.20;;;;;;;;;;5021879;28;20603;-74
2021/01/28 00:20:51;;;;;;;15.97;12.30;;;;;;;;;;5043787;28;20650;-74
2021/01/28 00:23:56;;;;;;;15.90;12.17;;;;;;;;;;5053608;28;20531;-74
2021/01/28 00:27:00;;;;;;;16.37;12.17;;;;;;;;;;5053574;28;20594;-74
2021/01/28 00:30:08;;;;;;;15.10;11.80;;;;;;;;;;5034270;28;20584;-74
2021/01/28 00:33:16;;;;;;;16.93;12.40;;;;;;;;;;5034514;28;20607;-74
2021/01/28 00:36:20;;;;;;;16.97;12.10;;;;;;;;;;5020934;28;20647;-74
2021/01/28 00:39:24;;;;;;;15.87;11.73;;;;;;;;;;5033526;28;20544;-74
2021/01/28 00:42:28;;;;;;;15.17;11.67;;;;;;;;;;5022038;28;20650;-74
2021/01/28 00:45:33;;;;;;;15.57;11.97;;;;;;;;;;5038575;28;20583;-74
2021/01/28 00:48:38;;;;;;;14.67;11.40;;;;;;;;;;5052830;28;20543;-74
2021/01/28 00:51:41;;;;;;;15.77;11.40;;;;;;;;;;5030374;28;20655;-75
2021/01/28 00:54:45;;;;;;;14.40;11.40;;;;;;;;;;5021483;28;20543;-74
2021/01/28 00:57:54;;;;;;;14.77;11.07;;;;;;;;;;5028889;28;20931;-74
2021/01/28 01:01:00;;;;;;;15.07;11.43;;;;;;;;;;5040862;28;20618;-74
2021/01/28 01:04:04;;;;;;;17.23;11.33;;;;;;;;;;5040898;28;20543;-74
2021/01/28 01:07:08;;;;;;;14.87;10.90;;;;;;;;;;5022268;28;21133;-71
2021/01/28 01:10:28;;;;;;;14.13;11.23;;;;;;;;;;5021337;28;20552;-71
2021/01/28 01:13:35;;;;;;;15.17;11.10;;;;;;;;;;5025255;28;20591;-71
2021/01/28 01:16:54;;;;;;;15.67;11.67;;;;;;;;;;5040657;28;20907;-71
2021/01/28 01:20:04;;;;;;;14.73;11.00;;;;;;;;;;5035014;28;20592;-72
2021/01/28 01:23:17;;;;;;;16.53;11.47;;;;;;;;;;5020685;28;20888;-74
2021/01/28 01:26:42;;;;;;;16.73;12.33;;;;;;;;;;5020669;28;20587;-74
2021/01/28 01:29:47;;;;;;;15.73;11.93;;;;;;;;;;5020908;28;21070;-74
2021/01/28 01:33:11;;;;;;;15.23;11.30;;;;;;;;;;5009335;28;20888;-74
2021/01/28 01:36:20;;;;;;;15.97;11.87;;;;;;;;;;5032517;28;20655;-74
2021/01/28 01:39:29;;;;;;;16.13;11.77;;;;;;;;;;5021051;28;20595;-72
2021/01/28 01:42:34;;;;;;;17.47;12.00;;;;;;;;;;5022532;28;20639;-72
2021/01/28 01:45:53;;;;;;;15.70;11.13;;;;;;;;;;5032816;28;20598;-72
2021/01/28 01:49:01;;;;;;;15.10;10.83;;;;;;;;;;5017171;28;20942;-71
2021/01/28 01:52:08;;;;;;;15.53;10.70;;;;;;;;;;5040102;28;20623;-72
2021/01/28 01:55:18;;;;;;;14.20;11.30;;;;;;;;;;5040145;28;20543;-72
2021/01/28 01:58:44;;;;;;;14.90;10.43;;;;;;;;;;5022599;28;20568;-72
2021/01/28 02:06:49;;;;;;;15.97;10.67;;;;;;;;;;5036284;28;20528;-72
2021/01/28 02:10:12;;;;;;;15.67;11.10;;;;;;;;;;5035930;28;20544;-73
2021/01/28 02:13:37;;;;;;;16.23;11.73;;;;;;;;;;5036211;28;20591;-72
2021/01/28 02:17:16;;;;;;;16.30;11.93;;;;;;;;;;5035706;28;20643;-72
2021/01/28 02:21:11;;;;;;;14.93;10.97;;;;;;;;;;5035722;28;21204;-72
2021/01/28 02:24:58;;;;;;;14.40;11.03;;;;;;;;;;5002747;28;20583;-72
2021/01/28 02:28:08;;;;;;;16.00;12.07;;;;;;;;;;5023415;28;20876;-72
2021/01/28 02:31:23;;;;;;;16.33;11.93;;;;;;;;;;5023526;28;20626;-72
2021/01/28 02:34:28;;;;;;;15.83;11.57;;;;;;;;;;5049111;28;20599;-73
2021/01/28 02:37:39;;;;;;;16.97;12.07;;;;;;;;;;5043290;28;20598;-72
2021/01/28 02:41:07;;;;;;;15.27;11.10;;;;;;;;;;5055485;28;20630;-72
2021/01/28 02:44:37;;;;;;;15.43;11.20;;;;;;;;;;5040212;28;20939;-72
2021/01/28 02:48:04;;;;;;;16.07;11.53;;;;;;;;;;5035356;28;20592;-72
2021/01/28 02:51:31;;;;;;;15.17;10.90;;;;;;;;;;5029672;28;20627;-72
2021/01/28 02:54:40;;;;;;;14.83;10.83;;;;;;;;;;5037235;28;20618;-72
2021/01/28 02:57:44;;;;;;;15.43;11.30;;;;;;;;;;5031428;28;20642;-73
2021/01/28 03:00:50;;;;;;;15.23;11.07;;;;;;;;;;5042573;28;20630;-73
2021/01/28 03:03:55;;;;;;;16.20;11.27;;;;;;;;;;5046119;28;20927;-72
2021/01/28 03:06:59;;;;;;;14.00;11.00;;;;;;;;;;5022909;28;20591;-72
2021/01/28 03:10:06;;;;;;;15.47;10.67;;;;;;;;;;5034795;28;20544;-72
2021/01/28 03:13:22;;;;;;;15.40;11.50;;;;;;;;;;5037958;28;20591;-73
2021/01/28 03:16:36;;;;;;;14.40;9.83;;;;;;;;;;5042241;28;20623;-73
2021/01/28 03:19:48;;;;;;;14.40;9.97;;;;;;;;;;5042456;28;20559;-72
2021/01/28 03:22:57;;;;;;;13.03;9.67;;;;;;;;;;5042437;28;20540;-72
2021/01/28 03:26:30;;;;;;;14.87;10.47;;;;;;;;;;5034597;28;20604;-72
2021/01/28 03:29:35;;;;;;;14.60;10.97;;;;;;;;;;5022673;28;21141;-72
2021/01/28 03:32:40;;;;;;;13.30;9.87;;;;;;;;;;5022147;28;20643;-72
2021/01/28 03:35:44;;;;;;;15.40;10.90;;;;;;;;;;5021987;28;20607;-72
2021/01/28 03:38:52;;;;;;;12.77;10.10;;;;;;;;;;5026035;28;20584;-72
2021/01/28 03:41:56;;;;;;;12.23;8.83;;;;;;;;;;5022257;28;20631;-72
2021/01/28 03:45:00;;;;;;;12.97;9.40;;;;;;;;;;5021900;28;20931;-73
2021/01/28 03:48:09;;;;;;;13.30;9.67;;;;;;;;;;5011699;28;20532;-72
2021/01/28 03:51:48;;;;;;;12.43;9.63;;;;;;;;;;4994582;28;20973;-73
2021/01/28 03:55:19;;;;;;;12.97;9.47;;;;;;;;;;5029155;28;20615;-72
2021/01/28 03:58:23;;;;;;;14.47;10.03;;;;;;;;;;5035394;28;20599;-72
2021/01/28 04:01:48;;;;;;;13.73;10.00;;;;;;;;;;5041460;28;21188;-72
2021/01/28 04:05:18;;;;;;;11.90;8.93;;;;;;;;;;5044932;28;20915;-72
2021/01/28 04:08:34;;;;;;;12.77;9.53;;;;;;;;;;5050501;28;20607;-72
2021/01/28 04:11:58;;;;;;;12.63;9.20;;;;;;;;;;5033867;28;20628;-72
2021/01/28 04:15:22;;;;;;;11.97;8.90;;;;;;;;;;5028929;28;20590;-72
2021/01/28 04:18:27;;;;;;;11.37;8.30;;;;;;;;;;5041057;28;21180;-72
2021/01/28 04:21:38;;;;;;;11.37;8.93;;;;;;;;;;5041352;28;20626;-72
2021/01/28 04:24:42;;;;;;;12.07;8.80;;;;;;;;;;5024674;28;20963;-72
2021/01/28 04:27:47;;;;;;;12.27;9.07;;;;;;;;;;5021255;28;20552;-72
2021/01/28 04:31:00;;;;;;;11.60;8.80;;;;;;;;;;5021065;28;20623;-72
2021/01/28 04:34:11;;;;;;;12.47;9.20;;;;;;;;;;5031805;28;20626;-72
2021/01/28 04:37:15;;;;;;;11.37;8.50;;;;;;;;;;5043735;23;21253;-71
2021/01/28 04:40:33;;;;;;;11.87;8.73;;;;;;;;;;5011083;28;20596;-71
2021/01/28 04:43:39;;;;;;;11.90;8.77;;;;;;;;;;5009882;28;20595;-72
2021/01/28 04:47:22;;;;;;;11.47;8.87;;;;;;;;;;4946981;29;20607;-73
2021/01/28 04:50:34;;;;;;;11.93;8.37;;;;;;;;;;4953032;29;20568;-73
2021/01/28 04:54:32;;;;;;;11.10;8.60;;;;;;;;;;5007870;28;20623;-73
2021/01/28 04:57:36;;;;;;;11.70;8.50;;;;;;;;;;5021364;28;20591;-73
2021/01/28 05:00:41;;;;;;;11.73;8.60;;;;;;;;;;5020778;28;20655;-72
2021/01/28 05:03:55;;;;;;;10.77;8.07;;;;;;;;;;5020771;28;20596;-73
2021/01/28 05:07:27;;;;;;;11.33;8.40;;;;;;;;;;5001446;28;20537;-73
2021/01/28 05:11:01;;;;;;;12.33;8.70;;;;;;;;;;4963749;28;20648;-73
2021/01/28 05:14:28;;;;;;;12.00;8.97;;;;;;;;;;5012160;28;20943;-72
2021/01/28 05:17:58;;;;;;;11.30;8.37;;;;;;;;;;5033078;28;20584;-73
2021/01/28 05:21:23;;;;;;;11.27;8.90;;;;;;;;;;5033294;28;20619;-72
2021/01/28 05:24:52;;;;;;;12.20;9.17;;;;;;;;;;5020745;28;20595;-72
2021/01/28 05:28:29;;;;;;;10.87;8.20;;;;;;;;;;5001451;28;20525;-72
2021/01/28 05:31:55;;;;;;;13.03;8.53;;;;;;;;;;5012987;28;20624;-72
2021/01/28 05:35:20;;;;;;;10.87;8.47;;;;;;;;;;5020032;28;20649;-72
2021/01/28 05:38:48;;;;;;;11.50;8.50;;;;;;;;;;5024534;28;20588;-72
2021/01/28 05:42:08;;;;;;;11.27;8.60;;;;;;;;;;5025507;28;20623;-72
2021/01/28 05:45:36;;;;;;;12.60;9.17;;;;;;;;;;5023538;28;20591;-72
2021/01/28 05:49:21;;;;;;;12.63;8.70;;;;;;;;;;5026313;28;21129;-71
2021/01/28 05:52:33;;;;;;;13.50;8.87;;;;;;;;;;5033594;28;20647;-73
2021/01/28 05:55:52;;;;;;;11.53;8.60;;;;;;;;;;5000793;28;20596;-73
2021/01/28 05:59:20;;;;;;;12.90;9.43;;;;;;;;;;5034992;28;20619;-74
2021/01/28 06:02:48;;;;;;;12.37;9.00;;;;;;;;;;5035851;28;20626;-74
2021/01/28 06:06:38;;;;;;;12.80;9.30;;;;;;;;;;5016304;28;20545;-74
2021/01/28 06:10:03;;;;;;;11.70;8.40;;;;;;;;;;5015824;28;20549;-75
2021/01/28 06:13:38;;;;;;;12.87;9.10;;;;;;;;;;4994443;28;20545;-74
2021/01/28 06:17:19;;;;;;;14.70;10.20;;;;;;;;;;5013641;28;20599;-74
2021/01/28 06:21:02;;;;;;;11.30;8.63;;;;;;;;;;5035633;28;20631;-74
2021/01/28 06:24:13;;;;;;;13.37;8.57;;;;;;;;;;5012634;28;20547;-74
2021/01/28 06:27:29;;;;;;;12.70;8.83;;;;;;;;;;5023393;28;20543;-74
2021/01/28 06:30:39;;;;;;;14.33;9.07;;;;;;;;;;5021806;28;20567;-74
2021/01/28 06:34:40;;;;;;;13.53;9.60;;;;;;;;;;5043462;28;21069;-74
2021/01/28 06:38:27;;;;;;;11.83;8.20;;;;;;;;;;5042977;28;20642;-74
2021/01/28 06:42:42;;;;;;;12.03;8.73;;;;;;;;;;5014100;28;20647;-72
2021/01/28 06:46:35;;;;;;;12.43;8.60;;;;;;;;;;5014439;28;20603;-74
2021/01/28 06:50:05;;;;;;;12.93;9.53;;;;;;;;;;5022937;28;20591;-74
2021/01/28 06:53:29;;;;;;;12.23;8.83;;;;;;;;;;5034630;28;20544;-74
2021/01/28 06:57:20;;;;;;;12.00;8.50;;;;;;;;;;5035281;28;20548;-71
2021/01/28 07:00:50;;;;;;;12.30;8.63;;;;;;;;;;5003360;28;20620;-71
2021/01/28 07:04:09;;;;;;;12.67;9.20;;;;;;;;;;4992958;28;20545;-71
2021/01/28 07:07:52;;;;;;;15.40;10.80;;;;;;;;;;5003321;28;20542;-71
2021/01/28 07:11:27;;;;;;;13.47;9.83;;;;;;;;;;5015879;28;20628;-71
2021/01/28 07:14:58;;;;;;;14.20;9.23;;;;;;;;;;5003433;28;20544;-71
2021/01/28 07:18:48;;;;;;;14.60;9.27;;;;;;;;;;5015073;28;20596;-71
2021/01/28 07:21:55;;;;;;;11.17;8.13;;;;;;;;;;5014844;28;20632;-71
2021/01/28 07:25:32;;;;;;;13.90;8.63;;;;;;;;;;5002986;28;20537;-71
2021/01/28 07:28:37;;;;;;;12.37;7.70;;;;;;;;;;5014783;28;20545;-71
2021/01/28 07:31:45;;;;;;;15.10;9.23;;;;;;;;;;5014521;28;20632;-71
2021/01/28 07:35:25;;;;;;;43.57;24.80;;;;;;;;;;5002506;28;20580;-71
2021/01/28 07:38:41;;;;;;;21.73;12.47;;;;;;;;;;5002682;28;21146;-71
2021/01/28 07:42:29;;;;;;;21.27;12.40;;;;;;;;;;5005009;28;20666;-71
2021/01/28 07:45:42;;;;;;;22.93;13.97;;;;;;;;;;5014386;28;20912;-71
2021/01/28 07:49:18;;;;;;;34.17;19.43;;;;;;;;;;5014336;28;20533;-70
2021/01/28 07:52:42;;;;;;;40.57;23.20;;;;;;;;;;5004727;28;20613;-71
2021/01/28 07:55:46;;;;;;;17.47;10.03;;;;;;;;;;5014505;28;20545;-71
2021/01/28 07:58:52;;;;;;;46.13;29.07;;;;;;;;;;5013512;28;20605;-71
2021/01/28 08:02:23;;;;;;;22.87;14.63;;;;;;;;;;5014116;28;20628;-71
2021/01/28 08:05:27;;;;;;;14.73;10.00;;;;;;;;;;5001941;28;20582;-71
2021/01/28 08:08:32;;;;;;;20.37;14.13;;;;;;;;;;5002174;28;20541;-71
2021/01/28 08:11:37;;;;;;;12.80;9.20;;;;;;;;;;5014005;28;20620;-70
2021/01/28 08:14:44;;;;;;;16.70;10.90;;;;;;;;;;5013913;28;20549;-71
2021/01/28 08:18:01;;;;;;;24.33;14.60;;;;;;;;;;5013721;28;20599;-70
2021/01/28 08:21:20;;;;;;;27.43;15.37;;;;;;;;;;5013745;28;20624;-72
2021/01/28 08:24:39;;;;;;;38.13;20.47;;;;;;;;;;5014023;28;20545;-72
2021/01/28 08:27:43;;;;;;;21.27;11.77;;;;;;;;;;5001820;28;20600;-73
2021/01/28 08:30:47;;;;;;;7.67;4.97;;;;;;;;;;5013722;28;20628;-73
2021/01/28 08:33:58;;;;;;;6.33;4.33;;;;;;;;;;5013509;28;20604;-73
2021/01/28 08:37:15;;;;;;;5.10;3.50;;;;;;;;;;5013578;28;20620;-73
2021/01/28 08:40:23;;;;;;;3.40;2.83;;;;;;;;;;5013706;28;20525;-73
2021/01/28 08:43:28;;;;;;;3.90;3.17;;;;;;;;;;5028565;28;20576;-73
2021/01/28 08:46:33;;;;;;;3.17;2.50;;;;;;;;;;5032502;28;20575;-73
2021/01/28 08:49:38;;;;;;;4.07;2.90;;;;;;;;;;5022017;28;20579;-73
2021/01/28 08:52:44;;;;;;;2.97;2.00;;;;;;;;;;5015278;28;20620;-73
2021/01/28 08:55:49;;;;;;;2.87;2.30;;;;;;;;;;5020821;28;20553;-73
2021/01/28 08:58:54;;;;;;;3.63;2.60;;;;;;;;;;5027904;28;21230;-73
2021/01/28 09:01:59;;;;;;;3.10;2.63;;;;;;;;;;5032564;28;20990;-73
2021/01/28 09:05:23;;;;;;;3.30;2.70;;;;;;;;;;5013464;28;20552;-73
2021/01/28 09:08:38;;;;;;;4.40;3.17;;;;;;;;;;5019837;28;20588;-73
2021/01/28 09:11:42;;;;;;;3.60;2.67;;;;;;;;;;5024572;28;20643;-73
2021/01/28 09:14:46;;;;;;;4.87;3.10;;;;;;;;;;5036636;28;20595;-73
2021/01/28 09:17:52;;;;;;;4.93;3.30;;;;;;;;;;5036600;28;20591;-73
2021/01/28 09:21:09;;;;;;;4.83;3.33;;;;;;;;;;5036549;28;20631;-73
2021/01/28 09:24:19;;;;;;;6.67;3.87;;;;;;;;;;5037092;28;20551;-73
2021/01/28 09:27:37;;;;;;;5.17;3.40;;;;;;;;;;5012831;28;20588;-73
2021/01/28 09:30:44;;;;;;;4.43;3.40;;;;;;;;;;5033054;28;20655;-73
2021/01/28 09:33:48;;;;;;;7.40;3.50;;;;;;;;;;5022188;28;20592;-73
2021/01/28 09:37:00;;;;;;;6.17;3.50;;;;;;;;;;5036667;28;20622;-73
2021/01/28 09:40:18;;;;;;;4.00;3.20;;;;;;;;;;5035079;28;20619;-73
2021/01/28 09:43:32;;;;;;;4.93;3.10;;;;;;;;;;5019482;28;20584;-73
2021/01/28 09:46:36;;;;;;;5.47;3.20;;;;;;;;;;5036266;28;20580;-73
2021/01/28 09:49:41;;;;;;;4.10;2.70;;;;;;;;;;5023475;28;21141;-73
2021/01/28 09:52:47;;;;;;;2.93;2.57;;;;;;;;;;5022961;28;20690;-73
2021/01/28 09:55:51;;;;;;;3.43;2.67;;;;;;;;;;5036477;28;20540;-73
2021/01/28 09:58:55;;;;;;;3.10;2.10;;;;;;;;;;5034794;28;20627;-73
2021/01/28 10:02:00;;;;;;;3.27;2.47;;;;;;;;;;5035864;28;20658;-73
2021/01/28 10:05:05;;;;;;;3.80;2.20;;;;;;;;;;5024241;28;20556;-72
2021/01/28 10:08:10;;;;;;;2.27;1.80;;;;;;;;;;5013717;28;20588;-72
2021/01/28 10:11:15;;;;;;;3.57;2.33;;;;;;;;;;5016752;28;20627;-72
2021/01/28 10:14:19;;;;;;;3.07;2.20;;;;;;;;;;5016082;28;20560;-72
2021/01/28 10:17:23;;;;;;;3.30;2.17;;;;;;;;;;5023877;28;20588;-72
2021/01/28 10:20:28;;;;;;;4.90;2.63;;;;;;;;;;5022751;28;21196;-71
2021/01/28 10:23:32;;;;;;;7.23;4.23;;;;;;;;;;5016695;28;20545;-70
2021/01/28 10:26:36;;;;;;;2.60;1.97;;;;;;;;;;5023062;28;21133;-71
2021/01/28 10:29:42;;;;;;;2.20;1.90;;;;;;;;;;5035879;28;20544;-71
2021/01/28 10:32:47;;;;;;;2.93;2.20;;;;;;;;;;5035266;28;21192;-71
2021/01/28 10:35:52;;;;;;;2.20;1.67;;;;;;;;;;5035299;28;20619;-71
2021/01/28 10:38:56;;;;;;;2.07;1.70;;;;;;;;;;5070859;23;20677;-87
2021/01/28 10:42:00;;;;;;;12.10;7.00;;;;;;;;;;5044924;28;20598;-87
2021/01/28 10:45:18;;;;;;;2.67;1.97;;;;;;;;;;5034907;28;20518;-88
2021/01/28 10:48:22;;;;;;;14.20;6.73;;;;;;;;;;5008800;28;20648;-87
2021/01/28 10:51:27;;;;;;;33.17;15.23;;;;;;;;;;4995039;28;21157;-87
2021/01/28 10:54:31;;;;;;;15.60;9.30;;;;;;;;;;4997061;28;20632;-88
2021/01/28 10:57:35;;;;;;;5.70;5.20;;;;;;;;;;5004187;28;20212;-87
2021/01/28 11:00:39;;;;;;;5.03;2.80;;;;;;;;;;4973771;28;20210;-87
2021/01/28 11:03:44;;;;;;;3.50;3.20;;;;;;;;;;5021594;28;20591;-87
2021/01/28 11:06:48;;;;;;;2.90;2.60;;;;;;;;;;5013521;28;20536;-87
2021/01/28 11:09:52;;;;;;;1.50;1.33;;;;;;;;;;4996064;28;20588;-87
2021/01/28 11:12:58;;;;;;;29.73;21.40;;;;;;;;;;4974445;28;20561;-87
2021/01/28 11:16:02;;;;;;;1.60;1.40;;;;;;;;;;5004979;28;20552;-87
2021/01/28 11:19:07;;;;;;;9.73;8.03;;;;;;;;;;5003326;28;20658;-87
2021/01/28 11:22:12;;;;;;;3.37;1.50;;;;;;;;;;5001845;28;20544;-88
2021/01/28 11:25:20;;;;;;;1.27;1.00;;;;;;;;;;5025529;28;20536;-87
2021/01/28 11:28:24;;;;;;;1.00;0.90;;;;;;;;;;5012139;28;20643;-87
2021/01/28 11:31:28;;;;;;;1.37;0.77;;;;;;;;;;4999636;28;20599;-85
2021/01/28 11:34:32;;;;;;;0.60;0.60;;;;;;;;;;4975224;28;20579;-87
2021/01/28 11:37:38;;;;;;;1.50;1.13;;;;;;;;;;4983194;28;21245;-86
2021/01/28 11:40:50;;;;;;;1.83;0.90;;;;;;;;;;4984852;28;20589;-86
2021/01/28 11:43:54;;;;;;;1.20;0.80;;;;;;;;;;5027433;28;20595;-86
2021/01/28 11:47:08;;;;;;;2.20;1.00;;;;;;;;;;5013441;28;20592;-85
2021/01/28 11:50:13;;;;;;;0.83;0.77;;;;;;;;;;5011252;28;20599;-89
2021/01/28 11:53:17;;;;;;;1.87;0.63;;;;;;;;;;4996653;28;20600;-87
2021/01/28 11:56:22;;;;;;;0.77;0.53;;;;;;;;;;5003337;28;20541;-87
2021/01/28 11:59:26;;;;;;;1.97;0.50;;;;;;;;;;4980774;28;20644;-87
2021/01/28 12:02:30;;;;;;;1.27;0.87;;;;;;;;;;4999529;28;20715;-87
2021/01/28 12:05:34;;;;;;;1.30;0.63;;;;;;;;;;5022417;28;20556;-87
2021/01/28 12:08:39;;;;;;;1.47;0.90;;;;;;;;;;4995171;28;20639;-87
2021/01/28 12:11:43;;;;;;;0.90;0.70;;;;;;;;;;5015789;28;20583;-87
2021/01/28 12:14:47;;;;;;;1.00;0.80;;;;;;;;;;5003546;28;20592;-87
2021/01/28 12:17:53;;;;;;;0.93;0.80;;;;;;;;;;4999981;28;20655;-87
2021/01/28 12:20:57;;;;;;;1.07;0.77;;;;;;;;;;4997630;28;20627;-87
2021/01/28 12:24:01;;;;;;;0.60;0.60;;;;;;;;;;4996533;28;20593;-87
2021/01/28 12:27:06;;;;;;;0.90;0.80;;;;;;;;;;4998917;28;20579;-87
2021/01/28 12:30:11;;;;;;;1.03;0.90;;;;;;;;;;5000265;28;20551;-87
2021/01/28 12:33:15;;;;;;;2.57;1.80;;;;;;;;;;5013951;28;20604;-87
2021/01/28 12:36:19;;;;;;;2.60;1.10;;;;;;;;;;4995510;28;20549;-87
2021/01/28 12:39:23;;;;;;;2.97;1.10;;;;;;;;;;4994242;28;20659;-87
2021/01/28 12:42:28;;;;;;;1.67;1.00;;;;;;;;;;5020278;28;20599;-87
2021/01/28 12:45:33;;;;;;;2.07;1.10;;;;;;;;;;4989098;28;21080;-87
2021/01/28 12:48:37;;;;;;;1.50;1.00;;;;;;;;;;4983348;28;20635;-87
2021/01/28 12:51:41;;;;;;;1.03;0.90;;;;;;;;;;5000551;28;20954;-88
2021/01/28 12:54:46;;;;;;;1.30;0.90;;;;;;;;;;5009696;28;20695;-88
2021/01/28 12:57:51;;;;;;;1.27;0.80;;;;;;;;;;4971890;28;21004;-89
2021/01/28 13:00:56;;;;;;;1.27;0.97;;;;;;;;;;4971272;28;20625;-88
2021/01/28 13:04:00;;;;;;;1.80;1.20;;;;;;;;;;4971319;28;20542;-88
2021/01/28 13:07:04;;;;;;;11.47;5.80;;;;;;;;;;4994326;28;20549;-88
2021/01/28 13:10:09;;;;;;;28.73;10.20;;;;;;;;;;5012165;28;20595;-88
2021/01/28 13:13:14;;;;;;;21.30;9.33;;;;;;;;;;4981185;28;20549;-87
2021/01/28 13:16:18;;;;;;;26.07;12.07;;;;;;;;;;4971283;28;20186;-88
2021/01/28 13:19:22;;;;;;;56.20;23.73;;;;;;;;;;4980641;28;20633;-88
2021/01/28 13:22:26;;;;;;;67.37;24.53;;;;;;;;;;4997526;28;20612;-87
2021/01/28 13:25:31;;;;;;;102.57;33.43;;;;;;;;;;4991782;28;20717;-88
2021/01/28 13:28:36;;;;;;;52.17;21.67;;;;;;;;;;4990692;28;20225;-88
2021/01/28 13:31:39;;;;;;;14.37;10.07;;;;;;;;;;5001070;28;20604;-87
2021/01/28 13:34:44;;;;;;;2.73;2.13;;;;;;;;;;4993225;28;20174;-88
2021/01/28 13:37:48;;;;;;;4.93;3.83;;;;;;;;;;4979080;28;20229;-88
2021/01/28 13:40:52;;;;;;;4.03;2.30;;;;;;;;;;4999916;28;20997;-88
2021/01/28 13:43:57;;;;;;;2.77;2.57;;;;;;;;;;5018147;28;20612;-88
2021/01/28 13:47:01;;;;;;;2.63;1.90;;;;;;;;;;4990191;28;20197;-88
2021/01/28 13:50:06;;;;;;;2.27;1.90;;;;;;;;;;5001084;28;20540;-88
2021/01/28 13:53:10;;;;;;;1.77;1.40;;;;;;;;;;4991530;28;20189;-88
2021/01/28 13:56:14;;;;;;;5.73;3.23;;;;;;;;;;4971531;28;20551;-88
2021/01/28 13:59:18;;;;;;;1.30;1.17;;;;;;;;;;4993683;28;20224;-88
2021/01/28 14:02:23;;;;;;;0.90;0.90;;;;;;;;;;4982673;28;20181;-87
2021/01/28 14:05:27;;;;;;;1.40;1.30;;;;;;;;;;5009009;28;20201;-87
2021/01/28 14:08:31;;;;;;;1.67;1.17;;;;;;;;;;4992963;28;20229;-87
2021/01/28 14:11:36;;;;;;;2.37;1.00;;;;;;;;;;4994100;28;20205;-88
2021/01/28 14:14:40;;;;;;;1.77;0.93;;;;;;;;;;4993140;28;20568;-87
2021/01/28 14:17:45;;;;;;;2.17;1.50;;;;;;;;;;5000820;28;20220;-87
2021/01/28 14:20:49;;;;;;;1.47;1.07;;;;;;;;;;5004191;28;20210;-88
2021/01/28 14:23:53;;;;;;;11.30;7.70;;;;;;;;;;4985044;28;20640;-87
2021/01/28 14:27:00;;;;;;;5.70;3.50;;;;;;;;;;4973484;28;20186;-87
2021/01/28 14:30:06;;;;;;;64.17;28.30;;;;;;;;;;4990332;28;20197;-87
2021/01/28 14:33:52;;;;;;;8.47;7.77;;;;;;;;;;4993251;28;20205;-87
2021/01/28 14:37:15;;;;;;;3.37;2.80;;;;;;;;;;4985664;28;20572;-87
2021/01/28 14:40:22;;;;;;;3.87;2.50;;;;;;;;;;4973418;28;20214;-87
2021/01/28 14:43:25;;;;;;;1.40;1.30;;;;;;;;;;4975348;28;20178;-87
2021/01/28 14:46:29;;;;;;;1.60;1.50;;;;;;;;;;5004167;28;20181;-86
2021/01/28 14:49:34;;;;;;;1.43;1.30;;;;;;;;;;4981930;28;20189;-87
2021/01/28 14:52:56;;;;;;;1.57;1.30;;;;;;;;;;4986399;28;20200;-87
2021/01/28 14:56:04;;;;;;;1.63;1.10;;;;;;;;;;5003793;28;20194;-88
2021/01/28 14:59:09;;;;;;;2.93;2.07;;;;;;;;;;4974162;28;20218;-89
2021/01/28 15:02:13;;;;;;;18.97;14.57;;;;;;;;;;4974288;28;20174;-89
2021/01/28 15:05:17;;;;;;;2.53;2.20;;;;;;;;;;5000488;28;20192;-89
2021/01/28 15:08:21;;;;;;;5.77;5.20;;;;;;;;;;5012521;28;20618;-88
2021/01/28 15:11:25;;;;;;;10.50;9.23;;;;;;;;;;4996168;28;20206;-88
2021/01/28 15:14:30;;;;;;;1.83;1.73;;;;;;;;;;5007331;28;20185;-88
2021/01/28 15:17:34;;;;;;;10.20;8.57;;;;;;;;;;4993764;28;20221;-87
2021/01/28 15:20:39;;;;;;;11.80;7.57;;;;;;;;;;4994406;28;20213;-86
2021/01/28 15:23:45;;;;;;;3.20;2.00;;;;;;;;;;4993543;28;20201;-88
2021/01/28 15:26:50;;;;;;;68.37;36.03;;;;;;;;;;4965939;28;20174;-88
2021/01/28 15:29:54;;;;;;;6.90;3.97;;;;;;;;;;4999663;28;20190;-88
2021/01/28 15:37:20;;;;;;;2.80;2.47;;;;;;;;;;4998851;28;20187;-90
2021/01/28 15:40:42;;;;;;;1.40;1.30;;;;;;;;;;5019865;28;20216;-87
2021/01/28 15:43:46;;;;;;;3.10;2.50;;;;;;;;;;4984497;28;20174;-88
2021/01/28 15:46:50;;;;;;;3.23;2.93;;;;;;;;;;5007405;28;20194;-87
2021/01/28 15:49:55;;;;;;;1.80;1.70;;;;;;;;;;4973694;28;20182;-87
2021/01/28 15:52:59;;;;;;;5.67;5.00;;;;;;;;;;4973474;28;20174;-87
2021/01/28 15:56:03;;;;;;;6.53;5.20;;;;;;;;;;4983582;28;20174;-86
2021/01/28 15:59:07;;;;;;;2.97;2.67;;;;;;;;;;4973942;28;20696;-86
2021/01/28 16:02:12;;;;;;;7.23;6.13;;;;;;;;;;4995988;28;20213;-87
2021/01/28 16:05:16;;;;;;;3.13;2.63;;;;;;;;;;4984777;28;20645;-87
2021/01/28 16:08:20;;;;;;;8.33;5.93;;;;;;;;;;4981498;28;20220;-87
2021/01/28 16:11:24;;;;;;;13.77;6.47;;;;;;;;;;4972193;28;20174;-88
2021/01/28 16:14:29;;;;;;;9.00;6.57;;;;;;;;;;5001512;28;20192;-88
2021/01/28 16:17:33;;;;;;;6.37;5.43;;;;;;;;;;5022088;28;20216;-86
2021/01/28 16:20:38;;;;;;;1.70;1.60;;;;;;;;;;4989282;28;20213;-87
2021/01/28 16:23:42;;;;;;;1.40;1.30;;;;;;;;;;4971969;28;20178;-87
2021/01/28 16:26:46;;;;;;;2.30;2.07;;;;;;;;;;4978150;28;20639;-87
2021/01/28 16:29:55;;;;;;;1.10;1.00;;;;;;;;;;5011245;28;20172;-87
2021/01/28 16:32:59;;;;;;;2.97;1.77;;;;;;;;;;5008944;28;20189;-88
2021/01/28 16:36:04;;;;;;;2.90;2.20;;;;;;;;;;5010195;28;20197;-88
2021/01/28 16:39:09;;;;;;;12.67;8.67;;;;;;;;;;5021517;28;20228;-87
2021/01/28 16:42:13;;;;;;;3.93;2.77;;;;;;;;;;5000202;28;20691;-87
2021/01/28 16:45:30;;;;;;;3.50;2.70;;;;;;;;;;4984700;28;20513;-89
2021/01/28 16:48:34;;;;;;;3.60;2.00;;;;;;;;;;4990806;28;20216;-86
2021/01/28 16:51:41;;;;;;;2.50;2.30;;;;;;;;;;4982170;28;20190;-87
2021/01/28 16:54:46;;;;;;;1.80;1.60;;;;;;;;;;5012897;28;20196;-86
2021/01/28 16:57:50;;;;;;;1.60;1.50;;;;;;;;;;5013198;28;20213;-87
2021/01/28 17:00:54;;;;;;;2.60;2.20;;;;;;;;;;4999816;28;20221;-90
2021/01/28 17:03:58;;;;;;;2.70;2.47;;;;;;;;;;5002052;28;20181;-90
2021/01/28 17:07:03;;;;;;;3.37;2.43;;;;;;;;;;5001828;28;20186;-89
2021/01/28 17:10:09;;;;;;;4.47;3.00;;;;;;;;;;4971508;28;20178;-90
2021/01/28 17:13:13;;;;;;;2.63;2.23;;;;;;;;;;4992374;28;20196;-90
2021/01/28 17:16:18;;;;;;;1.93;1.73;;;;;;;;;;5001964;28;20201;-90
2021/01/28 17:19:22;;;;;;;2.63;2.07;;;;;;;;;;4990286;28;20225;-91
2021/01/28 17:22:26;;;;;;;2.17;1.97;;;;;;;;;;4990290;28;20675;-91
2021/01/28 17:25:30;;;;;;;2.63;1.90;;;;;;;;;;5002369;28;20190;-90
2021/01/28 17:28:35;;;;;;;1.73;1.60;;;;;;;;;;4995269;28;20216;-90
2021/01/28 17:31:39;;;;;;;2.70;2.13;;;;;;;;;;5014355;28;20185;-89
2021/01/28 17:34:44;;;;;;;1.83;1.67;;;;;;;;;;4998808;28;20205;-88
2021/01/28 17:37:48;;;;;;;1.83;1.73;;;;;;;;;;4963555;28;20701;-89
2021/01/28 17:40:52;;;;;;;1.60;1.50;;;;;;;;;;5002576;28;20189;-87
2021/01/28 17:43:56;;;;;;;3.67;3.37;;;;;;;;;;5000109;28;20236;-86
2021/01/28 17:47:00;;;;;;;4.93;4.53;;;;;;;;;;4985465;28;20178;-85
2021/01/28 17:50:06;;;;;;;3.00;2.40;;;;;;;;;;4985846;28;20183;-86
2021/01/28 17:53:10;;;;;;;2.47;2.27;;;;;;;;;;4985378;28;20198;-85
2021/01/28 17:56:14;;;;;;;2.03;1.87;;;;;;;;;;5009241;28;20204;-85
2021/01/28 17:59:19;;;;;;;1.80;1.70;;;;;;;;;;5013360;28;20208;-86
2021/01/28 18:02:23;;;;;;;1.97;1.80;;;;;;;;;;4974212;28;20210;-86
2021/01/28 18:05:30;;;;;;;16.83;10.03;;;;;;;;;;5008336;28;20193;-86
2021/01/28 18:08:34;;;;;;;14.03;10.43;;;;;;;;;;5016667;28;20221;-85
2021/01/28 18:11:41;;;;;;;6.97;5.67;;;;;;;;;;4994046;28;20169;-86
2021/01/28 18:14:45;;;;;;;2.57;2.37;;;;;;;;;;4993816;28;20248;-86
2021/01/28 18:17:50;;;;;;;2.33;2.10;;;;;;;;;;5004677;28;20692;-87
2021/01/28 18:20:54;;;;;;;1.87;1.77;;;;;;;;;;4993317;28;20205;-87
2021/01/28 18:23:58;;;;;;;2.53;2.00;;;;;;;;;;5006463;28;20648;-86
2021/01/28 18:27:02;;;;;;;2.30;2.10;;;;;;;;;;5024065;28;20185;-87
2021/01/28 18:30:08;;;;;;;2.47;2.27;;;;;;;;;;5023948;28;20571;-86
2021/01/28 18:33:14;;;;;;;2.20;2.00;;;;;;;;;;5024642;28;20173;-87
2021/01/28 18:36:18;;;;;;;3.97;2.03;;;;;;;;;;5012775;28;20181;-86
2021/01/28 18:39:23;;;;;;;1.80;1.70;;;;;;;;;;5012543;28;20212;-86
2021/01/28 18:42:27;;;;;;;2.20;2.00;;;;;;;;;;4962369;28;20214;-87
2021/01/28 18:45:36;;;;;;;2.20;1.97;;;;;;;;;;4964547;28;20178;-87
2021/01/28 18:48:42;;;;;;;4.17;2.10;;;;;;;;;;4988757;28;20216;-87
2021/01/28 18:51:46;;;;;;;2.47;2.27;;;;;;;;;;4996515;28;20190;-87
2021/01/28 18:54:51;;;;;;;2.40;2.20;;;;;;;;;;5004007;28;20189;-87
2021/01/28 18:57:55;;;;;;;2.43;2.23;;;;;;;;;;5003361;28;20225;-87
2021/01/28 19:01:02;;;;;;;2.57;2.20;;;;;;;;;;5002658;28;20185;-87
2021/01/28 19:04:07;;;;;;;2.50;2.30;;;;;;;;;;4992549;28;20186;-87